Time;durP1;ratioP1;P1;durP2;ratioP2;P2;SDS_P1;SDS_P2;PMS_P1;PMS_P2;Temp;Humidity;BMP_temperature;BMP_pressure;BME280_temperature;BME280_humidity;BME280_pressure;Samples;Min_cycle;Max_cycle;Signal;HPM_P1;HPM_P2
2021/10/10 00:17:20;;;;;;;19.98;14.95;;;6.70;99.90;;;;;;5076671;28;20269;-79
2021/10/10 00:19:47;;;;;;;20.63;14.20;;;6.60;99.90;;;;;;5079600;28;20301;-79
2021/10/10 00:22:14;;;;;;;22.55;14.98;;;6.60;99.90;;;;;;5078947;28;20242;-80
2021/10/10 00:24:41;;;;;;;22.40;14.25;;;6.60;99.90;;;;;;5080447;28;20221;-79
2021/10/10 00:27:08;;;;;;;21.95;14.93;;;6.60;99.90;;;;;;5085565;28;20241;-79
2021/10/10 00:29:34;;;;;;;24.35;14.38;;;6.60;99.90;;;;;;5093560;28;20229;-76
2021/10/10 00:32:02;;;;;;;14.77;12.05;;;6.60;99.90;;;;;;5087875;28;20206;-77
2021/10/10 00:34:30;;;;;;;18.27;13.38;;;6.60;99.90;;;;;;5087834;28;20265;-77
2021/10/10 00:36:57;;;;;;;21.02;13.82;;;6.60;99.90;;;;;;5090058;28;20221;-77
2021/10/10 00:39:24;;;;;;;19.77;13.95;;;6.60;99.90;;;;;;5087542;28;20217;-77
2021/10/10 00:41:51;;;;;;;23.45;13.60;;;6.60;99.90;;;;;;5079265;28;20202;-77
2021/10/10 00:44:18;;;;;;;17.52;13.35;;;6.60;99.90;;;;;;5097746;28;20217;-75
2021/10/10 00:46:44;;;;;;;18.35;13.90;;;6.50;99.90;;;;;;5098640;28;20213;-75
2021/10/10 00:49:11;;;;;;;21.50;14.90;;;6.50;99.90;;;;;;5098223;28;20716;-77
2021/10/10 00:54:17;;;;;;;19.77;13.75;;;6.50;99.90;;;;;;5201102;22;20236;-77
2021/10/10 00:56:45;;;;;;;18.50;13.43;;;6.50;99.90;;;;;;5100778;28;20228;-78
2021/10/10 00:59:15;;;;;;;17.40;13.57;;;6.50;99.90;;;;;;5099396;28;20204;-76
2021/10/10 01:01:42;;;;;;;19.05;14.05;;;6.50;99.90;;;;;;5099162;28;20209;-77
2021/10/10 01:06:45;;;;;;;19.23;13.93;;;6.40;99.90;;;;;;5952067;22;20241;-77
2021/10/10 01:09:13;;;;;;;18.88;13.70;;;6.40;99.90;;;;;;5079043;28;20216;-76
2021/10/10 01:11:43;;;;;;;20.92;12.93;;;6.30;99.90;;;;;;5077731;28;20229;-80
2021/10/10 01:14:11;;;;;;;17.40;13.93;;;6.30;99.90;;;;;;5077117;28;20325;-80
2021/10/10 01:16:42;;;;;;;20.17;14.35;;;6.30;99.90;;;;;;5077831;28;20251;-79
2021/10/10 01:19:09;;;;;;;19.33;13.52;;;6.20;99.90;;;;;;5076187;28;20240;-78
2021/10/10 01:21:38;;;;;;;21.67;13.82;;;6.20;99.90;;;;;;5077658;28;20241;-79
2021/10/10 01:24:05;;;;;;;21.35;14.70;;;6.10;99.90;;;;;;5077017;28;20312;-78
2021/10/10 01:26:33;;;;;;;22.42;14.73;;;6.20;99.90;;;;;;5077036;28;20210;-78
2021/10/10 01:29:00;;;;;;;20.75;13.13;;;6.20;99.90;;;;;;5076978;28;20214;-79
2021/10/10 01:31:27;;;;;;;20.23;14.20;;;6.20;99.90;;;;;;5076455;28;20207;-79
2021/10/10 01:33:54;;;;;;;17.65;13.93;;;6.20;99.90;;;;;;5076703;28;20253;-79
2021/10/10 01:36:22;;;;;;;21.20;13.73;;;6.20;99.90;;;;;;5076870;28;20268;-79
2021/10/10 01:38:51;;;;;;;19.42;13.57;;;6.20;99.90;;;;;;5076600;28;20244;-79
2021/10/10 01:41:18;;;;;;;17.63;13.35;;;6.10;99.90;;;;;;5076338;28;20210;-79
2021/10/10 01:43:48;;;;;;;18.92;14.25;;;6.10;99.90;;;;;;5076723;28;20294;-80
2021/10/10 01:46:15;;;;;;;19.30;13.35;;;6.10;99.90;;;;;;5082256;28;20230;-79
2021/10/10 01:48:42;;;;;;;21.35;14.43;;;6.10;99.90;;;;;;5090246;28;20570;-79
2021/10/10 01:51:12;;;;;;;18.88;13.15;;;6.00;99.90;;;;;;5078741;28;20210;-78
2021/10/10 01:53:39;;;;;;;24.58;14.55;;;6.00;99.90;;;;;;5090841;28;20236;-77
2021/10/10 01:56:08;;;;;;;18.30;13.68;;;6.00;99.90;;;;;;5081688;28;20228;-79
2021/10/10 01:58:35;;;;;;;19.08;13.93;;;5.90;99.90;;;;;;5086002;28;20213;-79
2021/10/10 02:01:03;;;;;;;17.13;14.35;;;5.90;99.90;;;;;;5092970;28;20645;-78
2021/10/10 02:03:30;;;;;;;24.40;15.10;;;5.90;99.90;;;;;;5082030;28;20240;-78
2021/10/10 02:05:56;;;;;;;25.70;14.60;;;5.90;99.90;;;;;;5077476;28;20280;-78
2021/10/10 02:08:23;;;;;;;21.48;14.02;;;5.90;99.90;;;;;;5077622;28;20217;-78
2021/10/10 02:10:50;;;;;;;20.73;13.63;;;5.90;99.90;;;;;;5077821;28;20233;-78
2021/10/10 02:13:18;;;;;;;18.85;13.73;;;5.90;99.90;;;;;;5086884;28;20229;-79
2021/10/10 02:15:45;;;;;;;21.58;14.40;;;5.80;99.90;;;;;;5084484;28;20236;-79
2021/10/10 02:18:12;;;;;;;19.45;13.90;;;5.80;99.90;;;;;;5094547;28;20213;-77
2021/10/10 02:20:39;;;;;;;18.77;12.82;;;5.90;99.90;;;;;;5091071;28;20209;-79
2021/10/10 02:23:06;;;;;;;18.27;12.93;;;5.90;99.90;;;;;;5097096;28;20230;-77
2021/10/10 02:25:33;;;;;;;17.67;12.85;;;5.90;99.90;;;;;;5080095;28;20209;-79
2021/10/10 02:28:00;;;;;;;19.13;12.20;;;5.90;99.90;;;;;;5077696;28;20745;-79
2021/10/10 02:30:28;;;;;;;16.75;12.23;;;5.90;99.90;;;;;;5076472;28;20206;-79
2021/10/10 02:32:55;;;;;;;16.75;12.13;;;5.80;99.90;;;;;;5075441;28;20244;-79
2021/10/10 02:35:22;;;;;;;19.13;13.73;;;5.80;99.90;;;;;;5075645;28;20264;-79
2021/10/10 02:37:49;;;;;;;20.45;13.70;;;5.80;99.90;;;;;;5075645;28;20205;-79
2021/10/10 02:40:16;;;;;;;18.40;13.57;;;5.80;99.90;;;;;;5076067;28;20213;-78
2021/10/10 02:42:43;;;;;;;18.88;14.10;;;5.80;99.90;;;;;;5075513;28;20288;-78
2021/10/10 02:45:10;;;;;;;18.73;12.63;;;5.70;99.90;;;;;;5078002;28;20302;-80
2021/10/10 02:47:39;;;;;;;19.23;13.57;;;5.70;99.90;;;;;;5079734;28;20205;-78
2021/10/10 02:50:07;;;;;;;17.30;11.95;;;5.80;99.90;;;;;;5075472;28;20575;-79
2021/10/10 02:52:34;;;;;;;17.00;12.55;;;5.80;99.90;;;;;;5077090;28;20726;-79
2021/10/10 02:55:01;;;;;;;18.10;13.13;;;5.70;99.90;;;;;;5074926;28;20229;-78
2021/10/10 02:57:28;;;;;;;18.88;14.45;;;5.80;99.90;;;;;;5074769;28;20212;-78
2021/10/10 02:59:55;;;;;;;20.13;12.02;;;5.70;99.90;;;;;;5077867;28;20296;-79
2021/10/10 03:02:22;;;;;;;18.30;12.82;;;5.60;99.90;;;;;;5080075;28;20575;-78
2021/10/10 03:04:50;;;;;;;15.77;12.88;;;5.60;99.90;;;;;;5079052;28;20305;-80
2021/10/10 03:07:17;;;;;;;20.60;14.13;;;5.60;99.90;;;;;;5074890;28;20228;-78
2021/10/10 03:09:44;;;;;;;23.13;13.02;;;5.70;99.90;;;;;;5075933;28;20205;-79
2021/10/10 03:12:11;;;;;;;20.80;13.45;;;5.60;99.90;;;;;;5077080;28;20224;-78
2021/10/10 03:14:38;;;;;;;20.02;13.80;;;5.50;99.90;;;;;;5077348;28;20233;-79
2021/10/10 03:17:04;;;;;;;19.80;12.98;;;5.50;99.90;;;;;;5074888;28;20569;-79
2021/10/10 03:19:31;;;;;;;18.55;13.00;;;5.50;99.90;;;;;;5074761;28;20552;-78
2021/10/10 03:21:59;;;;;;;17.48;12.35;;;5.50;99.90;;;;;;5074599;28;20233;-79
2021/10/10 03:24:26;;;;;;;17.38;13.35;;;5.40;99.90;;;;;;5074575;28;20226;-79
2021/10/10 03:26:53;;;;;;;18.13;13.55;;;5.30;99.90;;;;;;5074644;28;20665;-78
2021/10/10 03:29:20;;;;;;;17.50;12.35;;;5.30;99.90;;;;;;5074751;28;20210;-78
2021/10/10 03:31:47;;;;;;;17.63;12.82;;;5.30;99.90;;;;;;5075140;28;20213;-79
2021/10/10 03:34:14;;;;;;;18.00;14.05;;;5.20;99.90;;;;;;5075406;28;20225;-79
2021/10/10 03:36:40;;;;;;;22.52;14.35;;;5.10;99.90;;;;;;5082017;28;20221;-79
2021/10/10 03:39:08;;;;;;;17.15;12.73;;;5.20;99.90;;;;;;5091564;28;20213;-79
2021/10/10 03:41:35;;;;;;;19.85;13.70;;;5.10;99.90;;;;;;5090756;28;20236;-79
2021/10/10 03:44:02;;;;;;;21.02;13.18;;;5.10;99.90;;;;;;5093922;28;20222;-76
2021/10/10 03:46:29;;;;;;;22.55;14.23;;;5.10;99.90;;;;;;5092933;28;20232;-78
2021/10/10 03:48:56;;;;;;;17.98;13.23;;;5.10;99.90;;;;;;5079868;28;20669;-80
2021/10/10 03:51:23;;;;;;;22.70;13.65;;;5.10;99.90;;;;;;5082479;28;20213;-78
2021/10/10 03:56:32;;;;;;;18.48;13.00;;;5.10;99.90;;;;;;5083452;28;20217;-78
2021/10/10 03:58:59;;;;;;;16.90;12.55;;;5.10;99.90;;;;;;5076955;28;20617;-79
2021/10/10 04:01:27;;;;;;;19.27;13.15;;;5.00;99.90;;;;;;5074906;28;20237;-78
2021/10/10 04:03:54;;;;;;;17.48;13.18;;;5.00;99.90;;;;;;5075543;28;20616;-79
2021/10/10 04:06:21;;;;;;;19.52;13.57;;;5.00;99.90;;;;;;5075923;28;20206;-79
2021/10/10 04:08:47;;;;;;;20.88;13.70;;;4.90;99.90;;;;;;5090609;28;20231;-80
2021/10/10 04:11:14;;;;;;;21.27;13.50;;;4.90;99.90;;;;;;5088415;28;20281;-78
2021/10/10 04:13:43;;;;;;;16.27;12.05;;;4.90;99.90;;;;;;5087242;28;20298;-79
2021/10/10 04:16:10;;;;;;;19.75;12.77;;;4.90;99.90;;;;;;5088195;28;20217;-78
2021/10/10 04:18:37;;;;;;;18.63;13.85;;;4.90;99.90;;;;;;5088679;28;20214;-79
2021/10/10 04:21:06;;;;;;;21.40;13.30;;;4.80;99.90;;;;;;5089131;28;20202;-78
2021/10/10 04:23:33;;;;;;;18.00;12.80;;;4.80;99.90;;;;;;5088530;28;20229;-79
2021/10/10 04:26:01;;;;;;;17.08;13.20;;;4.80;99.90;;;;;;5086222;28;20269;-79
2021/10/10 04:28:28;;;;;;;19.58;13.55;;;4.80;99.90;;;;;;5087582;28;20657;-79
2021/10/10 04:30:58;;;;;;;22.55;13.80;;;4.80;99.90;;;;;;5089615;28;20240;-79
2021/10/10 04:33:24;;;;;;;20.30;14.77;;;4.80;99.90;;;;;;5089097;28;20230;-79
2021/10/10 04:35:51;;;;;;;21.27;13.73;;;4.70;99.90;;;;;;5087983;28;20228;-78
2021/10/10 04:38:18;;;;;;;20.60;13.38;;;4.70;99.90;;;;;;5091073;28;20221;-79
2021/10/10 04:40:45;;;;;;;19.38;13.65;;;4.70;99.90;;;;;;5090627;28;20229;-79
2021/10/10 04:43:12;;;;;;;20.98;14.27;;;4.70;99.90;;;;;;5090297;28;20222;-79
2021/10/10 04:45:39;;;;;;;20.75;13.45;;;4.70;99.90;;;;;;5090357;28;20289;-78
2021/10/10 04:48:08;;;;;;;17.25;12.57;;;4.60;99.90;;;;;;5092534;28;20213;-78
2021/10/10 04:50:35;;;;;;;27.33;14.52;;;4.60;99.90;;;;;;5091706;28;20225;-78
2021/10/10 04:53:03;;;;;;;18.13;13.10;;;4.60;99.90;;;;;;5091608;28;20566;-80
2021/10/10 04:55:30;;;;;;;20.65;13.55;;;4.60;99.90;;;;;;5091449;28;20250;-79
2021/10/10 04:58:01;;;;;;;20.80;12.60;;;4.60;99.90;;;;;;5092676;28;20213;-80
2021/10/10 05:00:28;;;;;;;18.95;13.05;;;4.50;99.90;;;;;;5094127;28;20202;-80
2021/10/10 05:02:56;;;;;;;19.10;13.50;;;4.50;99.90;;;;;;5093176;28;20567;-79
2021/10/10 05:05:25;;;;;;;18.55;13.55;;;4.50;99.90;;;;;;5092020;28;20222;-79
2021/10/10 05:07:52;;;;;;;17.30;12.80;;;4.50;99.90;;;;;;5091564;28;20222;-78
2021/10/10 05:10:20;;;;;;;19.42;12.88;;;4.50;99.90;;;;;;5091512;28;20292;-79
2021/10/10 05:13:00;;;;;;;17.92;12.30;;;4.50;99.90;;;;;;5092648;28;20217;-80
2021/10/10 05:15:30;;;;;;;18.70;12.10;;;4.40;99.90;;;;;;5091985;28;20196;-80
2021/10/10 05:17:58;;;;;;;19.30;13.30;;;4.40;99.90;;;;;;5091792;28;20214;-79
2021/10/10 05:20:27;;;;;;;18.52;12.48;;;4.30;99.90;;;;;;5091487;28;20209;-78
2021/10/10 05:22:54;;;;;;;18.92;12.35;;;4.40;99.90;;;;;;5090951;28;20234;-80
2021/10/10 05:25:22;;;;;;;17.27;13.02;;;4.30;99.90;;;;;;5092120;28;20236;-79
2021/10/10 05:27:50;;;;;;;18.48;12.27;;;4.30;99.90;;;;;;5094231;28;20594;-78
2021/10/10 05:30:19;;;;;;;18.75;12.35;;;4.30;99.90;;;;;;5091743;28;20297;-79
2021/10/10 05:32:47;;;;;;;18.50;13.23;;;4.40;99.90;;;;;;5093180;28;20202;-79
2021/10/10 05:35:15;;;;;;;20.30;13.73;;;4.40;99.90;;;;;;5095948;28;20198;-77
2021/10/10 05:37:47;;;;;;;17.48;12.30;;;4.40;99.90;;;;;;5095831;28;20258;-78
2021/10/10 05:40:14;;;;;;;17.65;12.30;;;4.40;99.90;;;;;;5091666;28;20285;-78
2021/10/10 05:42:43;;;;;;;17.85;12.85;;;4.40;99.90;;;;;;5090227;28;20293;-77
2021/10/10 05:45:11;;;;;;;17.33;12.85;;;4.50;99.90;;;;;;5088906;28;20202;-79
2021/10/10 05:47:38;;;;;;;19.20;13.30;;;4.40;99.90;;;;;;5089248;28;20202;-78
2021/10/10 05:50:09;;;;;;;16.60;12.50;;;4.40;99.90;;;;;;5091334;28;20562;-77
2021/10/10 05:52:37;;;;;;;16.17;12.48;;;4.40;99.90;;;;;;5072373;28;20221;-79
2021/10/10 05:55:09;;;;;;;19.63;12.25;;;4.40;99.90;;;;;;5089568;28;20194;-79
2021/10/10 05:57:43;;;;;;;20.05;13.55;;;4.40;99.90;;;;;;5087667;28;20230;-79
2021/10/10 06:00:13;;;;;;;16.50;12.32;;;4.40;99.90;;;;;;5089759;28;20206;-78
2021/10/10 06:03:01;;;;;;;22.27;13.07;;;4.40;99.90;;;;;;5088634;28;20214;-79
2021/10/10 06:05:30;;;;;;;18.83;12.50;;;4.40;99.90;;;;;;5088728;28;20206;-79
2021/10/10 06:08:00;;;;;;;17.60;13.90;;;4.50;99.90;;;;;;5086646;28;20700;-79
2021/10/10 06:10:29;;;;;;;17.20;12.38;;;4.40;99.90;;;;;;5092776;28;20206;-77
2021/10/10 06:12:56;;;;;;;20.52;12.25;;;4.40;99.90;;;;;;5095042;28;20293;-79
2021/10/10 06:15:25;;;;;;;19.50;13.93;;;4.50;99.90;;;;;;5096827;28;20218;-80
2021/10/10 06:17:52;;;;;;;14.20;11.57;;;4.40;99.90;;;;;;5096637;28;20209;-78
2021/10/10 06:20:26;;;;;;;16.73;12.57;;;4.50;99.90;;;;;;5093889;28;20209;-79
2021/10/10 06:22:55;;;;;;;19.05;12.63;;;4.50;99.90;;;;;;5090800;28;20230;-78
2021/10/10 06:25:27;;;;;;;19.15;12.43;;;4.50;99.90;;;;;;5082844;28;20205;-79
2021/10/10 06:27:57;;;;;;;16.50;12.55;;;4.60;99.90;;;;;;5080360;28;20233;-80
2021/10/10 06:30:25;;;;;;;19.23;12.63;;;4.60;99.90;;;;;;5079006;28;20574;-79
2021/10/10 06:32:53;;;;;;;18.85;13.25;;;4.60;99.90;;;;;;5077428;28;20230;-79
2021/10/10 06:35:25;;;;;;;16.60;12.43;;;4.70;99.90;;;;;;5088414;28;20205;-79
2021/10/10 06:37:53;;;;;;;17.38;12.40;;;4.70;99.90;;;;;;5090523;28;20222;-77
2021/10/10 06:40:21;;;;;;;17.40;12.38;;;4.80;99.90;;;;;;5086979;28;20275;-78
2021/10/10 06:42:49;;;;;;;16.35;12.05;;;4.80;99.90;;;;;;5089124;28;20212;-79
2021/10/10 06:45:19;;;;;;;19.33;13.13;;;4.90;99.90;;;;;;5088146;28;20293;-78
2021/10/10 06:47:47;;;;;;;20.50;13.13;;;4.90;99.80;;;;;;5089029;28;20202;-78
2021/10/10 06:50:18;;;;;;;20.15;13.30;;;5.00;99.70;;;;;;5090419;28;20269;-78
2021/10/10 06:52:46;;;;;;;17.48;12.27;;;5.10;99.20;;;;;;5089851;28;20232;-78
2021/10/10 06:55:15;;;;;;;15.90;12.00;;;5.20;98.60;;;;;;5087893;28;20730;-79
2021/10/10 06:57:49;;;;;;;20.13;13.82;;;5.30;97.90;;;;;;5088896;28;20289;-79
2021/10/10 07:00:23;;;;;;;16.67;12.95;;;5.30;96.80;;;;;;5076319;28;20209;-79
2021/10/10 07:02:50;;;;;;;16.38;11.48;;;5.40;96.50;;;;;;5076356;28;20237;-79
2021/10/10 07:05:19;;;;;;;18.00;12.82;;;5.60;96.00;;;;;;5076930;28;20209;-80
2021/10/10 07:10:30;;;;;;;17.25;11.85;;;5.70;95.30;;;;;;5076968;28;20228;-79
2021/10/10 07:12:58;;;;;;;19.08;12.43;;;5.70;94.30;;;;;;5074710;28;20668;-79
2021/10/10 07:15:31;;;;;;;19.02;13.10;;;5.80;94.20;;;;;;5075216;28;20205;-78
2021/10/10 07:18:41;;;;;;;16.30;12.23;;;5.90;93.80;;;;;;5072850;28;20230;-78
2021/10/10 07:21:20;;;;;;;15.10;11.70;;;6.00;93.30;;;;;;5118766;22;20235;-76
2021/10/10 07:24:08;;;;;;;17.98;12.43;;;6.10;92.90;;;;;;5135070;27;20196;-78
2021/10/10 07:26:35;;;;;;;16.25;10.93;;;6.30;92.60;;;;;;5136442;27;20604;-77
2021/10/10 07:29:02;;;;;;;15.45;11.38;;;6.40;91.70;;;;;;5134537;27;20210;-77
2021/10/10 07:31:30;;;;;;;15.75;12.40;;;6.50;91.00;;;;;;5124757;27;20277;-77
2021/10/10 07:33:57;;;;;;;15.30;11.07;;;6.60;90.40;;;;;;5121176;27;20204;-78
2021/10/10 07:36:24;;;;;;;18.15;12.10;;;6.70;89.90;;;;;;5114211;28;20281;-77
2021/10/10 07:38:51;;;;;;;17.40;12.73;;;6.70;89.70;;;;;;5115545;28;20194;-77
2021/10/10 07:41:18;;;;;;;16.35;12.05;;;6.80;89.30;;;;;;5116456;28;20248;-79
2021/10/10 07:43:45;;;;;;;18.52;11.57;;;7.00;87.70;;;;;;5115846;28;20201;-77
2021/10/10 07:46:18;;;;;;;17.35;11.60;;;7.10;86.70;;;;;;5115684;28;20292;-77
2021/10/10 07:48:48;;;;;;;13.65;11.55;;;7.20;85.30;;;;;;5117065;28;20217;-78
2021/10/10 07:51:14;;;;;;;16.15;12.18;;;7.30;83.40;;;;;;5121280;28;20229;-78
2021/10/10 07:53:41;;;;;;;17.85;12.48;;;7.30;83.40;;;;;;5116424;28;20669;-76
2021/10/10 07:56:08;;;;;;;17.25;12.82;;;7.30;83.40;;;;;;5118083;28;20205;-80
2021/10/10 07:58:35;;;;;;;16.42;11.43;;;7.40;83.50;;;;;;5126464;28;20205;-78
2021/10/10 08:01:02;;;;;;;16.60;11.55;;;7.50;83.50;;;;;;5118089;28;20329;-77
2021/10/10 08:03:29;;;;;;;17.75;11.10;;;7.60;82.10;;;;;;5117626;28;20771;-79
2021/10/10 08:05:57;;;;;;;16.02;12.02;;;7.70;82.10;;;;;;5134770;28;20257;-78
2021/10/10 08:08:24;;;;;;;17.27;11.80;;;7.80;80.50;;;;;;5115734;28;20228;-78
2021/10/10 08:10:51;;;;;;;18.33;12.50;;;7.90;81.30;;;;;;5115681;28;20322;-77
2021/10/10 08:13:18;;;;;;;18.52;12.13;;;7.90;80.90;;;;;;5112470;28;20288;-77
2021/10/10 08:15:44;;;;;;;15.98;12.25;;;8.00;79.70;;;;;;5113701;28;20437;-77
2021/10/10 08:18:11;;;;;;;14.00;11.60;;;8.10;79.20;;;;;;5112109;28;20315;-77
2021/10/10 08:20:39;;;;;;;15.73;12.00;;;8.20;79.30;;;;;;5111953;28;20262;-77
2021/10/10 08:23:09;;;;;;;14.40;10.75;;;8.40;78.10;;;;;;5111721;28;20242;-78
2021/10/10 08:25:36;;;;;;;16.40;11.93;;;8.50;76.00;;;;;;5112616;28;20202;-78
2021/10/10 08:28:02;;;;;;;19.95;11.90;;;8.70;76.60;;;;;;5113995;28;20206;-77
2021/10/10 08:30:29;;;;;;;17.08;11.80;;;8.90;74.80;;;;;;5118196;28;20586;-77
2021/10/10 08:32:56;;;;;;;15.38;11.80;;;8.90;74.40;;;;;;5119326;28;20682;-77
2021/10/10 08:35:23;;;;;;;13.82;11.23;;;9.00;73.00;;;;;;5118507;28;20267;-78
2021/10/10 08:37:50;;;;;;;17.85;11.85;;;9.20;73.50;;;;;;5129760;28;20298;-78
2021/10/10 08:40:19;;;;;;;18.13;11.55;;;9.30;70.90;;;;;;5136890;28;20303;-78
2021/10/10 08:42:49;;;;;;;16.52;12.57;;;9.40;71.30;;;;;;5138970;28;20207;-78
2021/10/10 08:45:18;;;;;;;14.13;11.00;;;9.50;69.80;;;;;;5137295;28;20643;-78
2021/10/10 08:47:46;;;;;;;14.52;11.13;;;9.70;69.00;;;;;;5139505;28;20204;-79
2021/10/10 08:50:17;;;;;;;15.50;11.50;;;9.80;68.40;;;;;;5127677;28;20707;-77
2021/10/10 08:52:45;;;;;;;16.10;11.13;;;9.80;68.40;;;;;;5128191;28;20239;-79
2021/10/10 08:55:12;;;;;;;16.13;11.73;;;10.00;67.00;;;;;;5136163;28;20195;-77
2021/10/10 08:57:41;;;;;;;13.98;11.25;;;10.10;66.50;;;;;;5139363;28;20231;-76
2021/10/10 09:00:14;;;;;;;16.42;10.82;;;10.20;64.50;;;;;;5138456;28;20764;-79
2021/10/10 09:02:43;;;;;;;13.30;10.65;;;10.30;63.40;;;;;;5139568;28;20219;-79
2021/10/10 09:05:10;;;;;;;14.52;11.10;;;10.30;63.40;;;;;;5137424;28;20214;-78
2021/10/10 09:07:38;;;;;;;14.65;11.27;;;10.20;62.80;;;;;;5128222;28;20214;-76
2021/10/10 09:10:17;;;;;;;14.15;10.55;;;10.40;63.30;;;;;;5122899;28;20224;-74
2021/10/10 09:12:45;;;;;;;14.27;10.35;;;10.60;62.40;;;;;;5122192;28;20204;-78
2021/10/10 09:15:15;;;;;;;15.60;11.90;;;10.70;61.20;;;;;;5125907;28;20235;-78
2021/10/10 09:17:53;;;;;;;15.85;10.93;;;10.90;60.70;;;;;;5121108;28;20224;-77
2021/10/10 09:20:30;;;;;;;11.70;10.05;;;11.00;59.60;;;;;;5118543;28;20242;-77
2021/10/10 09:22:57;;;;;;;20.15;12.55;;;11.00;58.10;;;;;;5119141;28;20200;-78
2021/10/10 09:25:25;;;;;;;14.68;10.82;;;10.90;59.50;;;;;;5118509;28;20242;-77
2021/10/10 09:27:53;;;;;;;13.48;10.80;;;11.00;58.20;;;;;;5120040;28;20219;-78
2021/10/10 09:30:22;;;;;;;11.48;9.95;;;11.00;57.60;;;;;;5118445;28;20212;-77
2021/10/10 09:32:54;;;;;;;13.35;10.57;;;11.00;58.60;;;;;;5117581;28;20205;-78
2021/10/10 09:35:27;;;;;;;15.00;11.05;;;11.20;57.70;;;;;;5117215;28;20197;-77
2021/10/10 09:38:12;;;;;;;15.57;11.68;;;11.40;56.80;;;;;;5116310;28;20224;-77
2021/10/10 09:40:48;;;;;;;19.77;11.68;;;11.40;56.50;;;;;;5115255;28;20311;-78
2021/10/10 09:43:17;;;;;;;18.45;11.48;;;11.50;57.00;;;;;;5117276;28;20219;-78
2021/10/10 09:45:53;;;;;;;12.30;11.00;;;11.50;55.70;;;;;;5131953;28;20207;-77
2021/10/10 09:48:39;;;;;;;15.80;10.90;;;11.50;57.00;;;;;;5116143;28;20242;-77
2021/10/10 09:51:06;;;;;;;16.67;10.98;;;11.60;56.60;;;;;;5126203;28;20235;-78
2021/10/10 09:53:35;;;;;;;16.27;11.70;;;11.70;55.60;;;;;;5126763;28;20230;-77
2021/10/10 09:56:08;;;;;;;16.17;11.30;;;11.90;55.80;;;;;;5116723;28;20216;-77
2021/10/10 09:58:37;;;;;;;12.98;10.43;;;12.00;55.30;;;;;;5116965;28;20588;-78
2021/10/10 10:01:23;;;;;;;14.27;10.85;;;12.00;55.10;;;;;;5115354;28;20604;-76
2021/10/10 10:03:58;;;;;;;16.40;11.23;;;12.00;53.20;;;;;;5115765;28;20204;-77
2021/10/10 10:06:26;;;;;;;15.65;10.65;;;11.90;52.20;;;;;;5115864;28;20208;-77
2021/10/10 10:08:54;;;;;;;14.18;11.13;;;12.00;52.00;;;;;;5118942;28;20692;-77
2021/10/10 10:11:21;;;;;;;15.77;10.65;;;12.10;51.20;;;;;;5123408;28;20229;-78
2021/10/10 10:13:51;;;;;;;14.00;10.55;;;12.20;51.30;;;;;;5118906;28;20204;-79
2021/10/10 10:16:18;;;;;;;12.55;10.20;;;12.30;51.40;;;;;;5116823;28;20213;-76
2021/10/10 10:18:46;;;;;;;14.95;10.77;;;12.50;50.80;;;;;;5116300;28;20227;-77
2021/10/10 10:21:15;;;;;;;15.50;10.95;;;12.50;49.50;;;;;;5115431;28;20252;-77
2021/10/10 10:23:42;;;;;;;14.80;10.50;;;12.60;49.20;;;;;;5116605;28;20213;-78
2021/10/10 10:26:09;;;;;;;14.63;10.13;;;12.80;49.50;;;;;;5115702;28;20202;-78
2021/10/10 10:28:38;;;;;;;12.35;9.80;;;13.00;47.70;;;;;;5117053;28;20197;-76
2021/10/10 10:31:07;;;;;;;14.20;10.25;;;13.10;46.80;;;;;;5119668;28;20219;-76
2021/10/10 10:33:34;;;;;;;13.68;10.55;;;13.20;47.10;;;;;;5116842;28;20229;-77
2021/10/10 10:36:01;;;;;;;15.80;9.50;;;13.20;46.80;;;;;;5115881;28;20563;-76
2021/10/10 10:38:43;;;;;;;14.90;10.65;;;13.30;46.60;;;;;;5116147;28;20628;-77
2021/10/10 10:41:44;;;;;;;12.63;10.15;;;13.30;46.30;;;;;;5117067;28;20233;-77
2021/10/10 10:44:35;;;;;;;13.27;9.77;;;13.30;45.40;;;;;;5118820;28;20217;-77
2021/10/10 10:47:06;;;;;;;14.68;9.35;;;13.20;46.10;;;;;;5116523;28;20215;-77
2021/10/10 10:50:02;;;;;;;14.30;9.30;;;13.30;45.80;;;;;;5125992;27;20205;-78
2021/10/10 10:52:30;;;;;;;10.98;9.23;;;13.40;44.70;;;;;;5089475;27;20611;-78
2021/10/10 10:54:58;;;;;;;11.63;8.98;;;13.40;44.30;;;;;;5130734;27;20217;-78
2021/10/10 10:57:33;;;;;;;15.57;9.05;;;13.50;43.50;;;;;;5137233;27;20216;-76
2021/10/10 11:00:13;;;;;;;10.18;8.88;;;13.70;43.00;;;;;;5122932;27;20308;-78
2021/10/10 11:03:09;;;;;;;10.95;8.93;;;13.80;43.00;;;;;;5129551;27;20230;-79
2021/10/10 11:05:38;;;;;;;11.73;9.98;;;13.90;43.10;;;;;;5139716;27;20236;-78
2021/10/10 11:08:07;;;;;;;11.55;8.25;;;14.00;41.40;;;;;;5138074;27;20195;-78
2021/10/10 11:10:36;;;;;;;11.70;8.55;;;14.00;39.20;;;;;;5127211;27;20228;-79
2021/10/10 11:13:26;;;;;;;14.93;9.05;;;14.00;39.80;;;;;;5128794;27;20217;-79
2021/10/10 11:15:56;;;;;;;10.20;9.02;;;14.10;38.80;;;;;;5119758;28;20218;-79
2021/10/10 11:18:26;;;;;;;18.98;9.02;;;14.20;39.10;;;;;;5123756;27;20238;-79
2021/10/10 11:20:58;;;;;;;11.13;7.82;;;14.20;40.70;;;;;;5126151;27;20222;-78
2021/10/10 11:23:25;;;;;;;9.98;8.35;;;14.20;39.20;;;;;;5125741;27;20205;-79
2021/10/10 11:25:54;;;;;;;12.65;9.20;;;14.30;38.70;;;;;;5130721;27;20252;-79
2021/10/10 11:28:35;;;;;;;10.60;8.48;;;14.30;38.70;;;;;;5133607;27;20195;-79
2021/10/10 11:31:10;;;;;;;10.70;9.10;;;14.40;38.20;;;;;;5135905;27;20229;-79
2021/10/10 11:33:40;;;;;;;8.88;7.55;;;14.40;38.40;;;;;;5136243;27;20183;-78
2021/10/10 11:36:07;;;;;;;12.90;8.50;;;14.40;39.00;;;;;;5146232;27;20186;-79
2021/10/10 11:38:54;;;;;;;12.65;7.82;;;14.40;38.60;;;;;;5147592;27;20211;-80
2021/10/10 11:41:22;;;;;;;10.90;8.20;;;14.60;38.90;;;;;;5146256;27;20207;-79
2021/10/10 11:44:04;;;;;;;13.55;8.95;;;14.60;36.60;;;;;;5152828;27;20190;-78
2021/10/10 11:46:39;;;;;;;11.25;7.90;;;14.30;36.50;;;;;;5142602;28;20222;-78
2021/10/10 11:52:07;;;;;;;11.27;8.13;;;14.50;37.90;;;;;;5143123;27;20835;-78
2021/10/10 11:54:38;;;;;;;8.60;7.78;;;14.70;37.70;;;;;;5120740;28;20672;-79
2021/10/10 11:57:07;;;;;;;10.13;8.32;;;14.90;37.70;;;;;;5109857;28;20200;-78
2021/10/10 11:59:34;;;;;;;10.77;8.40;;;14.80;36.70;;;;;;5121493;28;20223;-78
2021/10/10 12:02:02;;;;;;;11.77;8.35;;;14.80;36.50;;;;;;5116622;28;20244;-78
2021/10/10 12:04:29;;;;;;;14.45;8.77;;;14.70;37.70;;;;;;5097678;28;20207;-78
2021/10/10 12:06:56;;;;;;;10.95;7.93;;;14.90;36.60;;;;;;5114264;28;20683;-78
2021/10/10 12:09:24;;;;;;;12.63;8.73;;;14.70;36.30;;;;;;5110688;28;20233;-78
2021/10/10 12:12:09;;;;;;;7.80;7.00;;;14.60;34.90;;;;;;5103235;28;20260;-78
2021/10/10 12:14:47;;;;;;;13.10;8.68;;;14.70;34.90;;;;;;5099902;28;20559;-78
2021/10/10 12:17:30;;;;;;;12.38;8.52;;;14.60;34.30;;;;;;5113033;28;20211;-78
2021/10/10 12:19:58;;;;;;;11.13;8.20;;;14.70;33.80;;;;;;5108453;28;20205;-78
2021/10/10 12:22:25;;;;;;;10.98;8.00;;;14.80;35.40;;;;;;5110767;28;20281;-77
2021/10/10 12:24:53;;;;;;;9.82;7.75;;;14.90;35.20;;;;;;5115097;28;20238;-76
2021/10/10 12:27:28;;;;;;;10.25;7.40;;;14.90;35.10;;;;;;5109057;28;20277;-77
2021/10/10 12:29:55;;;;;;;11.40;7.90;;;15.10;34.70;;;;;;5106888;28;20251;-77
2021/10/10 12:32:24;;;;;;;9.35;7.88;;;15.20;34.30;;;;;;5097709;28;20201;-77
2021/10/10 12:35:05;;;;;;;15.55;9.00;;;15.00;34.90;;;;;;5089319;28;20211;-77
2021/10/10 12:37:33;;;;;;;13.40;8.45;;;15.00;34.20;;;;;;5091473;28;20292;-77
2021/10/10 12:40:01;;;;;;;9.95;8.30;;;15.10;34.20;;;;;;5090640;28;20278;-77
2021/10/10 12:42:46;;;;;;;10.57;7.82;;;15.10;35.10;;;;;;5093718;28;20196;-77
2021/10/10 12:45:20;;;;;;;9.77;8.15;;;15.20;34.40;;;;;;5093303;28;20200;-78
2021/10/10 12:47:47;;;;;;;11.70;8.07;;;15.20;34.30;;;;;;5111633;28;20201;-77
2021/10/10 12:50:13;;;;;;;10.15;8.05;;;15.20;34.30;;;;;;5111157;28;20233;-77
2021/10/10 12:52:41;;;;;;;11.85;8.25;;;15.10;34.90;;;;;;5112449;28;20225;-77
2021/10/10 12:55:23;;;;;;;10.15;8.50;;;15.20;34.30;;;;;;5112931;28;20189;-77
2021/10/10 12:57:54;;;;;;;14.70;8.07;;;15.10;34.20;;;;;;5096263;28;20262;-76
2021/10/10 13:00:21;;;;;;;15.00;8.15;;;15.20;34.30;;;;;;5108993;28;20227;-78
2021/10/10 13:02:49;;;;;;;10.05;8.30;;;15.30;34.40;;;;;;5100159;28;20240;-77
2021/10/10 13:05:17;;;;;;;11.07;8.07;;;15.40;34.50;;;;;;5096610;28;20293;-77
2021/10/10 13:07:44;;;;;;;13.18;9.07;;;15.30;34.30;;;;;;5098027;28;20447;-78
2021/10/10 13:10:13;;;;;;;8.05;7.25;;;15.30;34.40;;;;;;5081962;28;20291;-79
2021/10/10 13:12:39;;;;;;;12.00;7.90;;;15.40;34.50;;;;;;5077690;28;20304;-78
2021/10/10 13:15:08;;;;;;;22.60;8.57;;;15.40;34.80;;;;;;5079022;28;20210;-77
2021/10/10 13:17:35;;;;;;;15.63;8.27;;;15.50;34.60;;;;;;5079375;28;20205;-78